Lupton, MI (48635)

12:15 AM EDT on April 19, 2015 (GMT -0400)
Rose Township | | Change Station
CLOSE
Current Station
Personal Weather Station
Location: Lupton, MI
Elevation: 922 ft
Nearby Weather Stations

Elev 922 ft 44.43 °N, 84.01 °W | Updated 9 seconds ago

Clear
Clear
33.4 °F
Feels Like 33 °F
N
0.0
Wind Variable Wind from East
Gusts 0.0 mph

Today
High -- | Low -- °F
--% Chance of Precip.
Yesterday
High -- | Low -- °F
Precip. -- in
6:45 AM 8:25 PM
New Moon, 0% visible
Pressure 30.21 in
Visibility 10.0 miles
Clouds Clear
Windchill 33 °F
Dew Point 27 °F
Humidity 78%
Rainfall 0.00 in
Snow Depth Not available.
UV 0 out of 12
Pollen 10.90 out of 12
Air Quality Not available.
Flu Activity Regional
METAR KOSC 190354Z AUTO 00000KT 10SM CLR 01/M01 A3021 RMK AO2 T00091015

More Conditions Fewer Conditions

Pressure 30.21 in
Visibility 10.0 miles
Clouds Clear
Windchill 33 °F
Dew Point 27 °F
Humidity 78%
Rainfall 0.00 in
Snow Depth Not available.
UV 0 out of 12
Pollen 10.90 out of 12
Air Quality Not available.
Flu Activity Regional
METAR KOSC 190354Z AUTO 00000KT 10SM CLR 01/M01 A3021 RMK AO2 T00091015

More Conditions Fewer Conditions

Nowcast | as of 12:00 am EDT on April 19, 2015

At 1 am...clear. Temperature 39. East winds 6 mph. At 3 am...mostly clear. Temperature 37. East winds 8 mph. At 5 am...mostly clear. Temperature 37. East winds 8 mph. At 7 am...mostly clear. Temperature 37. East winds 10 mph.

×

10-Day Weather Forecast

Almanac

Astronomy

Apr. 19, 2015 Rise Set
Actual Time
Civil Twilight
Nautical Twilight
Astronomical Twilight
Moon
Length of Visible Light
Length of Day
Tomorrow will be .
, % of the Moon is Illuminated

Today's Extremes

State Highs State Lows

Community

WunderPhotos

Upload Photos

1,814,721 photos uploaded!

WunderBlogs® & News

Nearby

Air Quality

  Air Quality AQ Index Pollutant
Not available.

Snow Depth

Station Depth Elevation

Earthquake Activity

City Distance Mag. Time & Date
Minimum magnitude displayed is 2.5.

Coastal Water Temperatures

Place Temperature

Stations

Nearby Weather Stations

Station Location Temp. Windchill Dew Point Humidity Wind Precip. Elev Updated Type